Time;durP1;ratioP1;P1;durP2;ratioP2;P2;SDS_P1;SDS_P2;PMS_P1;PMS_P2;Temp;Humidity;BMP_temperature;BMP_pressure;BME280_temperature;BME280_humidity;BME280_pressure;Samples;Min_cycle;Max_cycle;Signal;HPM_P1;HPM_P2
2023/01/10 00:00:08;;;;;;;0.30;0.30;;;;;;;;;;5056645;28;20247;-68
2023/01/10 00:02:36;;;;;;;0.20;0.20;;;;;;;;;;5055163;28;20231;-68
2023/01/10 00:05:03;;;;;;;0.20;0.20;;;;;;;;;;5055110;28;20203;-68
2023/01/10 00:07:30;;;;;;;1.17;0.23;;;;;;;;;;5058232;28;20215;-68
2023/01/10 00:09:57;;;;;;;0.43;0.43;;;;;;;;;;5055898;28;20269;-68
2023/01/10 00:15:10;;;;;;;0.60;0.50;;;;;;;;;;5055983;28;20210;-68
2023/01/10 00:17:39;;;;;;;0.17;0.17;;;;;;;;;;5057257;28;20207;-68
2023/01/10 00:20:06;;;;;;;1.50;0.40;;;;;;;;;;5055247;28;20211;-68
2023/01/10 00:22:33;;;;;;;0.20;0.20;;;;;;;;;;5052255;28;20242;-67
2023/01/10 00:25:00;;;;;;;1.60;0.43;;;;;;;;;;5058716;28;20268;-68
2023/01/10 00:27:30;;;;;;;0.30;0.30;;;;;;;;;;5063469;28;20207;-68
2023/01/10 00:30:00;;;;;;;0.20;0.20;;;;;;;;;;5060469;28;20214;-68
2023/01/10 00:32:27;;;;;;;0.30;0.20;;;;;;;;;;5063678;28;20207;-68
2023/01/10 00:34:55;;;;;;;0.20;0.20;;;;;;;;;;5051944;28;20219;-68
2023/01/10 00:37:22;;;;;;;2.30;0.50;;;;;;;;;;5051982;28;20279;-67
2023/01/10 00:39:49;;;;;;;0.10;0.10;;;;;;;;;;5062416;28;20218;-68
2023/01/10 00:45:01;;;;;;;2.63;0.30;;;;;;;;;;5062555;28;20277;-67
2023/01/10 00:47:28;;;;;;;3.23;0.50;;;;;;;;;;5060945;28;20329;-67
2023/01/10 00:49:56;;;;;;;0.13;0.13;;;;;;;;;;5062819;28;20210;-67
2023/01/10 00:52:23;;;;;;;0.10;0.10;;;;;;;;;;5061534;28;20202;-67
2023/01/10 00:54:50;;;;;;;0.10;0.10;;;;;;;;;;5061356;28;20206;-67
2023/01/10 00:57:17;;;;;;;0.23;0.23;;;;;;;;;;5059347;28;20238;-67
2023/01/10 00:59:45;;;;;;;8.57;0.40;;;;;;;;;;5062782;28;20230;-67
2023/01/10 01:02:12;;;;;;;4.23;0.20;;;;;;;;;;5061408;28;20223;-67
2023/01/10 01:04:39;;;;;;;3.40;0.50;;;;;;;;;;5062250;28;20203;-67
2023/01/10 01:07:07;;;;;;;1.20;0.20;;;;;;;;;;5064140;28;20318;-67
2023/01/10 01:10:25;;;;;;;0.13;0.13;;;;;;;;;;5062485;28;20238;-67
2023/01/10 01:12:21;;;;;;;0.07;0.07;;;;;;;;;;5064741;28;20635;-67
2023/01/10 01:14:48;;;;;;;0.20;0.20;;;;;;;;;;5063050;28;20272;-66
2023/01/10 01:17:16;;;;;;;0.20;0.20;;;;;;;;;;5052903;28;20204;-66
2023/01/10 01:19:43;;;;;;;0.20;0.20;;;;;;;;;;5052657;28;20207;-69
2023/01/10 01:22:12;;;;;;;0.00;0.00;;;;;;;;;;5051606;28;20235;-70
2023/01/10 01:24:39;;;;;;;0.00;0.00;;;;;;;;;;5052122;28;20207;-67
2023/01/10 01:27:06;;;;;;;0.73;0.10;;;;;;;;;;5052493;28;20574;-66
2023/01/10 01:29:33;;;;;;;0.10;0.10;;;;;;;;;;5052736;28;20218;-66
2023/01/10 01:32:00;;;;;;;0.10;0.10;;;;;;;;;;5062797;28;20617;-66
2023/01/10 01:34:27;;;;;;;1.40;0.20;;;;;;;;;;5061978;28;20235;-67
2023/01/10 01:36:55;;;;;;;0.10;0.10;;;;;;;;;;5058062;28;20253;-67
2023/01/10 01:39:24;;;;;;;0.10;0.10;;;;;;;;;;5059069;28;20216;-66
2023/01/10 01:41:57;;;;;;;0.10;0.10;;;;;;;;;;5060476;28;20256;-66
2023/01/10 01:44:25;;;;;;;0.10;0.10;;;;;;;;;;5057637;28;20230;-66
2023/01/10 01:46:56;;;;;;;0.10;0.10;;;;;;;;;;5056770;28;20207;-67
2023/01/10 01:49:24;;;;;;;4.63;0.10;;;;;;;;;;5060696;28;20222;-66
2023/01/10 01:51:53;;;;;;;0.50;0.10;;;;;;;;;;5058357;28;20252;-67
2023/01/10 01:54:20;;;;;;;0.07;0.07;;;;;;;;;;5058018;28;20237;-66
2023/01/10 01:56:50;;;;;;;0.10;0.10;;;;;;;;;;5057936;28;20227;-66
2023/01/10 01:59:19;;;;;;;0.00;0.00;;;;;;;;;;5057910;28;20204;-67
2023/01/10 02:01:48;;;;;;;0.10;0.10;;;;;;;;;;5058595;28;20250;-66
2023/01/10 02:04:17;;;;;;;1.53;0.10;;;;;;;;;;5057867;28;20284;-66
2023/01/10 02:06:45;;;;;;;0.10;0.10;;;;;;;;;;5059557;28;20237;-66
2023/01/10 02:09:15;;;;;;;0.57;0.20;;;;;;;;;;5058061;28;20239;-66
2023/01/10 02:11:42;;;;;;;0.10;0.10;;;;;;;;;;5059298;28;20226;-67
2023/01/10 02:14:11;;;;;;;0.10;0.10;;;;;;;;;;5057689;28;20627;-67
2023/01/10 02:16:38;;;;;;;0.30;0.30;;;;;;;;;;5060281;28;20231;-67
2023/01/10 02:19:10;;;;;;;0.20;0.20;;;;;;;;;;5054890;28;20264;-67
2023/01/10 02:21:48;;;;;;;0.77;0.10;;;;;;;;;;5057625;28;20203;-67
2023/01/10 02:24:30;;;;;;;5.20;0.17;;;;;;;;;;5056608;28;20230;-67
2023/01/10 02:27:03;;;;;;;1.40;0.20;;;;;;;;;;5060443;28;20200;-67
2023/01/10 02:29:50;;;;;;;0.20;0.20;;;;;;;;;;5056113;28;20218;-67
2023/01/10 02:32:22;;;;;;;0.10;0.10;;;;;;;;;;5056357;28;20642;-67
2023/01/10 02:35:00;;;;;;;0.10;0.10;;;;;;;;;;5048372;28;20207;-66
2023/01/10 02:37:35;;;;;;;0.10;0.10;;;;;;;;;;5054101;28;20219;-66
2023/01/10 02:40:05;;;;;;;0.20;0.20;;;;;;;;;;5061712;28;20323;-67
2023/01/10 02:42:37;;;;;;;0.40;0.20;;;;;;;;;;5057333;28;20462;-66
2023/01/10 02:45:07;;;;;;;0.20;0.20;;;;;;;;;;5057038;28;20203;-67
2023/01/10 02:47:39;;;;;;;0.10;0.10;;;;;;;;;;5058382;28;20203;-66
2023/01/10 02:50:29;;;;;;;1.70;0.30;;;;;;;;;;5058244;28;20199;-67
2023/01/10 02:53:17;;;;;;;0.20;0.20;;;;;;;;;;5059082;28;20203;-66
2023/01/10 02:55:56;;;;;;;0.73;0.20;;;;;;;;;;5058675;28;20227;-67
2023/01/10 02:58:28;;;;;;;2.03;0.20;;;;;;;;;;5059053;28;20222;-67
2023/01/10 03:00:58;;;;;;;1.43;0.30;;;;;;;;;;5060122;28;20204;-67
2023/01/10 03:03:33;;;;;;;0.13;0.13;;;;;;;;;;5056974;28;20232;-67
2023/01/10 03:06:08;;;;;;;8.00;0.50;;;;;;;;;;5059078;28;20210;-66
2023/01/10 03:08:38;;;;;;;0.10;0.10;;;;;;;;;;5058861;28;20268;-67
2023/01/10 03:11:06;;;;;;;2.43;0.27;;;;;;;;;;5055914;28;20232;-67
2023/01/10 03:13:36;;;;;;;0.30;0.30;;;;;;;;;;5058542;28;20234;-66
2023/01/10 03:16:06;;;;;;;1.00;0.27;;;;;;;;;;5058619;28;20224;-67
2023/01/10 03:18:37;;;;;;;1.70;0.30;;;;;;;;;;5060120;28;20261;-67
2023/01/10 03:21:06;;;;;;;0.20;0.17;;;;;;;;;;5056994;28;20199;-66
2023/01/10 03:23:34;;;;;;;0.20;0.20;;;;;;;;;;5057437;28;20235;-67
2023/01/10 03:26:01;;;;;;;0.30;0.30;;;;;;;;;;5057653;28;20294;-66
2023/01/10 03:28:31;;;;;;;0.30;0.30;;;;;;;;;;5056913;28;20222;-67
2023/01/10 03:31:00;;;;;;;1.23;0.30;;;;;;;;;;5059275;28;20210;-67
2023/01/10 03:33:28;;;;;;;4.70;0.40;;;;;;;;;;5056819;28;20325;-67
2023/01/10 03:36:05;;;;;;;0.30;0.30;;;;;;;;;;5054598;28;20654;-67
2023/01/10 03:38:38;;;;;;;0.20;0.20;;;;;;;;;;5059308;28;20203;-66
2023/01/10 03:41:08;;;;;;;0.20;0.20;;;;;;;;;;5058307;28;20229;-67
2023/01/10 03:46:27;;;;;;;0.20;0.20;;;;;;;;;;5052667;28;20215;-67
2023/01/10 03:48:55;;;;;;;2.90;0.80;;;;;;;;;;5053079;28;20210;-67
2023/01/10 03:51:24;;;;;;;2.33;0.43;;;;;;;;;;5057577;28;20215;-66
2023/01/10 03:53:51;;;;;;;1.17;0.20;;;;;;;;;;5058413;28;20249;-67
2023/01/10 03:56:18;;;;;;;0.50;0.43;;;;;;;;;;5055537;28;20237;-69
2023/01/10 03:58:45;;;;;;;0.30;0.30;;;;;;;;;;5056777;28;20234;-67
2023/01/10 04:01:12;;;;;;;0.33;0.33;;;;;;;;;;5057325;28;20214;-67
2023/01/10 04:03:39;;;;;;;0.47;0.47;;;;;;;;;;5056445;28;20227;-67
2023/01/10 04:06:06;;;;;;;1.90;0.50;;;;;;;;;;5054226;28;20217;-67
2023/01/10 04:08:35;;;;;;;0.40;0.40;;;;;;;;;;5047312;28;20248;-66
2023/01/10 04:11:03;;;;;;;2.00;0.73;;;;;;;;;;5047130;28;20237;-66
2023/01/10 04:13:30;;;;;;;0.97;0.80;;;;;;;;;;5046572;28;20222;-66
2023/01/10 04:16:00;;;;;;;1.57;0.53;;;;;;;;;;5051945;28;20210;-66
2023/01/10 04:18:27;;;;;;;0.67;0.40;;;;;;;;;;5055726;28;20222;-66
2023/01/10 04:20:54;;;;;;;2.03;0.87;;;;;;;;;;5058303;28;20207;-67
2023/01/10 04:23:21;;;;;;;1.77;0.50;;;;;;;;;;5056466;28;20222;-67
2023/01/10 04:25:49;;;;;;;0.70;0.67;;;;;;;;;;5056523;28;20206;-66
2023/01/10 04:28:16;;;;;;;7.33;0.90;;;;;;;;;;5057191;28;20268;-66
2023/01/10 04:30:43;;;;;;;1.40;1.03;;;;;;;;;;5046740;28;20207;-66
2023/01/10 04:33:11;;;;;;;1.63;0.80;;;;;;;;;;5053686;28;20290;-67
2023/01/10 04:35:38;;;;;;;0.70;0.70;;;;;;;;;;5054162;28;21501;-67
2023/01/10 04:38:05;;;;;;;0.97;0.47;;;;;;;;;;5057671;28;20790;-67
2023/01/10 04:40:32;;;;;;;5.50;1.10;;;;;;;;;;5056331;28;20249;-67
2023/01/10 04:43:01;;;;;;;1.27;0.60;;;;;;;;;;5055507;28;21092;-66
2023/01/10 04:45:28;;;;;;;2.07;0.40;;;;;;;;;;5057474;28;20238;-67
2023/01/10 04:48:05;;;;;;;1.53;0.70;;;;;;;;;;5055381;28;20368;-67
2023/01/10 04:50:32;;;;;;;5.70;0.70;;;;;;;;;;5046225;28;20215;-67
2023/01/10 04:52:59;;;;;;;1.10;0.50;;;;;;;;;;5045634;28;20752;-67
2023/01/10 04:55:26;;;;;;;5.13;0.80;;;;;;;;;;5053469;28;20226;-67
2023/01/10 04:57:53;;;;;;;1.50;0.80;;;;;;;;;;5054729;28;20221;-67
2023/01/10 05:00:22;;;;;;;0.50;0.50;;;;;;;;;;5056920;28;20204;-67
2023/01/10 05:02:49;;;;;;;2.30;1.17;;;;;;;;;;5056018;28;20203;-67
2023/01/10 05:05:16;;;;;;;2.83;1.10;;;;;;;;;;5053407;28;20231;-67
2023/01/10 05:07:46;;;;;;;1.63;0.80;;;;;;;;;;5055187;28;20219;-67
2023/01/10 05:10:13;;;;;;;5.27;1.10;;;;;;;;;;5056894;28;20322;-66
2023/01/10 05:12:40;;;;;;;1.90;0.80;;;;;;;;;;5059042;28;20210;-67
2023/01/10 05:15:08;;;;;;;1.03;0.80;;;;;;;;;;5057024;28;20203;-67
2023/01/10 05:17:36;;;;;;;0.90;0.87;;;;;;;;;;5052604;28;20243;-67
2023/01/10 05:20:03;;;;;;;2.33;0.97;;;;;;;;;;5050362;28;20813;-67
2023/01/10 05:22:30;;;;;;;4.37;0.73;;;;;;;;;;5050610;28;20219;-67
2023/01/10 05:24:57;;;;;;;2.23;0.70;;;;;;;;;;5051235;28;20238;-67
2023/01/10 05:27:25;;;;;;;1.37;1.30;;;;;;;;;;5054545;28;20207;-67
2023/01/10 05:29:52;;;;;;;0.80;0.67;;;;;;;;;;5064556;28;20207;-67
2023/01/10 05:32:20;;;;;;;3.93;0.73;;;;;;;;;;5074353;28;20210;-67
2023/01/10 05:34:49;;;;;;;1.63;0.57;;;;;;;;;;5058826;28;20210;-67
2023/01/10 05:37:15;;;;;;;0.97;0.37;;;;;;;;;;5071073;28;20260;-67
2023/01/10 05:39:42;;;;;;;0.77;0.60;;;;;;;;;;5063706;28;20253;-66
2023/01/10 05:42:10;;;;;;;1.43;0.90;;;;;;;;;;5055000;28;20277;-68
2023/01/10 05:44:37;;;;;;;1.63;0.63;;;;;;;;;;5058222;28;20227;-69
2023/01/10 05:47:04;;;;;;;5.47;1.13;;;;;;;;;;5061985;28;20203;-68
2023/01/10 05:49:31;;;;;;;1.00;0.80;;;;;;;;;;5060064;28;20206;-67
2023/01/10 05:51:59;;;;;;;1.00;0.67;;;;;;;;;;5055242;28;20204;-65
2023/01/10 05:54:28;;;;;;;1.13;0.93;;;;;;;;;;5064503;28;20207;-70
2023/01/10 05:56:55;;;;;;;1.27;0.50;;;;;;;;;;5054150;28;20247;-69
2023/01/10 05:59:22;;;;;;;1.03;0.50;;;;;;;;;;5053037;28;20257;-69
2023/01/10 06:01:49;;;;;;;0.93;0.63;;;;;;;;;;5052772;28;20212;-68
2023/01/10 06:04:16;;;;;;;2.30;0.80;;;;;;;;;;5059414;28;20220;-68
2023/01/10 06:06:43;;;;;;;0.87;0.70;;;;;;;;;;5054687;28;20211;-72
2023/01/10 06:09:11;;;;;;;3.60;0.80;;;;;;;;;;5069278;28;20238;-68
2023/01/10 06:11:39;;;;;;;2.10;1.10;;;;;;;;;;5068439;28;20210;-68
2023/01/10 06:14:07;;;;;;;4.50;1.33;;;;;;;;;;5058142;28;20207;-68
2023/01/10 06:16:34;;;;;;;2.23;0.93;;;;;;;;;;5048482;28;20210;-71
2023/01/10 06:19:01;;;;;;;2.13;0.87;;;;;;;;;;5060182;28;20212;-69
2023/01/10 06:21:28;;;;;;;5.10;0.90;;;;;;;;;;5050194;28;20211;-69
2023/01/10 06:23:55;;;;;;;1.27;1.17;;;;;;;;;;5049755;28;20231;-69
2023/01/10 06:26:23;;;;;;;2.20;0.90;;;;;;;;;;5055006;28;20203;-69
2023/01/10 06:28:50;;;;;;;0.87;0.87;;;;;;;;;;5070454;28;20214;-68
2023/01/10 06:31:17;;;;;;;2.00;0.50;;;;;;;;;;5058300;28;20689;-69
2023/01/10 06:33:44;;;;;;;5.87;0.30;;;;;;;;;;5050625;28;20207;-69
2023/01/10 06:36:11;;;;;;;5.90;0.97;;;;;;;;;;5055070;28;20234;-69
2023/01/10 06:38:38;;;;;;;10.83;0.83;;;;;;;;;;5054054;28;20257;-68
2023/01/10 06:41:12;;;;;;;1.00;0.70;;;;;;;;;;5054007;28;20253;-68
2023/01/10 06:43:41;;;;;;;1.60;0.40;;;;;;;;;;5070018;28;20293;-68
2023/01/10 06:46:09;;;;;;;0.83;0.77;;;;;;;;;;5068445;28;20256;-68
2023/01/10 06:48:36;;;;;;;0.83;0.83;;;;;;;;;;5070067;28;20272;-68
2023/01/10 06:51:04;;;;;;;1.07;0.83;;;;;;;;;;5064569;28;20215;-68
2023/01/10 06:53:31;;;;;;;2.47;0.60;;;;;;;;;;5057389;28;20231;-68
2023/01/10 06:55:58;;;;;;;0.63;0.57;;;;;;;;;;5063030;28;20226;-68
2023/01/10 06:58:25;;;;;;;1.13;0.70;;;;;;;;;;5069286;28;20221;-68
2023/01/10 07:00:53;;;;;;;0.67;0.60;;;;;;;;;;5057864;28;20266;-68
2023/01/10 07:03:20;;;;;;;0.67;0.43;;;;;;;;;;5049828;28;20678;-69
2023/01/10 07:05:47;;;;;;;2.20;0.60;;;;;;;;;;5056521;28;20242;-67
2023/01/10 07:08:14;;;;;;;1.47;0.60;;;;;;;;;;5069785;28;20226;-67
2023/01/10 07:10:41;;;;;;;7.10;0.63;;;;;;;;;;5062491;28;20645;-68
2023/01/10 07:13:08;;;;;;;1.03;0.93;;;;;;;;;;5065916;28;20269;-68
2023/01/10 07:15:36;;;;;;;2.73;0.53;;;;;;;;;;5062018;28;20211;-68
2023/01/10 07:18:04;;;;;;;2.27;1.03;;;;;;;;;;5049512;28;20213;-68
2023/01/10 07:20:31;;;;;;;2.30;0.50;;;;;;;;;;5049560;28;20566;-67
2023/01/10 07:22:59;;;;;;;4.23;0.77;;;;;;;;;;5049602;28;20261;-68
2023/01/10 07:25:27;;;;;;;0.50;0.50;;;;;;;;;;5052681;28;20238;-67
2023/01/10 07:27:55;;;;;;;0.67;0.67;;;;;;;;;;5069309;28;20207;-68
2023/01/10 07:30:22;;;;;;;0.40;0.40;;;;;;;;;;5069195;28;20653;-71
2023/01/10 07:32:53;;;;;;;0.50;0.50;;;;;;;;;;5069336;28;20772;-69
2023/01/10 07:35:21;;;;;;;0.50;0.50;;;;;;;;;;5066456;28;20291;-67
2023/01/10 07:37:48;;;;;;;9.27;0.60;;;;;;;;;;5068977;28;20310;-68
2023/01/10 07:40:16;;;;;;;0.70;0.43;;;;;;;;;;5055489;28;20294;-68
2023/01/10 07:42:43;;;;;;;0.37;0.37;;;;;;;;;;5060080;28;20325;-68
2023/01/10 07:45:10;;;;;;;0.77;0.60;;;;;;;;;;5064081;28;20832;-68
2023/01/10 07:47:37;;;;;;;2.00;0.70;;;;;;;;;;5056568;28;20215;-68
2023/01/10 07:50:04;;;;;;;1.53;0.60;;;;;;;;;;5068172;28;20213;-68
2023/01/10 07:52:33;;;;;;;1.93;0.93;;;;;;;;;;5068709;28;20206;-68
2023/01/10 07:55:00;;;;;;;6.80;0.73;;;;;;;;;;5066681;28;20206;-67
2023/01/10 07:57:27;;;;;;;4.53;1.13;;;;;;;;;;5047973;28;20238;-67
2023/01/10 07:59:54;;;;;;;3.00;0.77;;;;;;;;;;5048805;28;20215;-68
2023/01/10 08:02:21;;;;;;;3.87;1.13;;;;;;;;;;5047948;28;20558;-68
2023/01/10 08:04:48;;;;;;;5.33;0.67;;;;;;;;;;5047484;28;20276;-68
2023/01/10 08:07:15;;;;;;;6.47;0.77;;;;;;;;;;5048275;28;20215;-68
2023/01/10 08:09:43;;;;;;;2.07;0.60;;;;;;;;;;5052079;28;20849;-68
2023/01/10 08:12:10;;;;;;;0.50;0.50;;;;;;;;;;5067718;28;20218;-68
2023/01/10 08:14:37;;;;;;;1.13;0.80;;;;;;;;;;5067781;28;20229;-70
2023/01/10 08:17:04;;;;;;;3.70;0.90;;;;;;;;;;5067818;28;20267;-68
2023/01/10 08:19:31;;;;;;;0.57;0.30;;;;;;;;;;5058692;28;20242;-67
2023/01/10 08:21:59;;;;;;;0.93;0.53;;;;;;;;;;5048400;28;20275;-67
2023/01/10 08:24:26;;;;;;;10.40;1.10;;;;;;;;;;5051695;28;20260;-68
2023/01/10 08:26:54;;;;;;;0.80;0.40;;;;;;;;;;5048530;28;20293;-67
2023/01/10 08:29:21;;;;;;;3.33;0.60;;;;;;;;;;5048220;28;20253;-67
2023/01/10 08:31:48;;;;;;;4.80;0.60;;;;;;;;;;5059970;28;20260;-67
2023/01/10 08:34:15;;;;;;;2.83;0.63;;;;;;;;;;5068265;28;20257;-67
2023/01/10 08:36:42;;;;;;;10.07;1.13;;;;;;;;;;5050152;28;20219;-67
2023/01/10 08:39:09;;;;;;;6.33;1.00;;;;;;;;;;5048121;28;20214;-67
2023/01/10 08:41:40;;;;;;;0.93;0.47;;;;;;;;;;5048357;28;20349;-66
2023/01/10 08:44:10;;;;;;;1.73;0.60;;;;;;;;;;5048460;28;20698;-69
2023/01/10 08:46:38;;;;;;;4.83;0.70;;;;;;;;;;5052193;28;20724;-68
2023/01/10 08:49:05;;;;;;;2.53;0.87;;;;;;;;;;5052615;28;20726;-69
2023/01/10 08:51:32;;;;;;;4.07;0.77;;;;;;;;;;5052605;28;20211;-68
2023/01/10 08:53:59;;;;;;;3.70;1.00;;;;;;;;;;5052350;28;20207;-69
2023/01/10 08:56:26;;;;;;;7.70;1.17;;;;;;;;;;5055368;28;20227;-70
2023/01/10 08:58:53;;;;;;;1.07;0.60;;;;;;;;;;5072560;28;20215;-69
2023/01/10 09:01:21;;;;;;;3.00;1.17;;;;;;;;;;5060561;28;20215;-69
2023/01/10 09:03:48;;;;;;;2.67;0.60;;;;;;;;;;5053241;28;20254;-66
2023/01/10 09:06:15;;;;;;;5.93;0.70;;;;;;;;;;5058432;28;20647;-66
2023/01/10 09:08:42;;;;;;;0.30;0.30;;;;;;;;;;5060858;28;20674;-67
2023/01/10 09:11:09;;;;;;;4.00;1.03;;;;;;;;;;5051536;28;20721;-68
2023/01/10 09:13:36;;;;;;;3.23;1.13;;;;;;;;;;5051831;28;20298;-68
2023/01/10 09:16:04;;;;;;;4.70;0.70;;;;;;;;;;5053041;28;20313;-67
2023/01/10 09:18:32;;;;;;;2.07;0.70;;;;;;;;;;5051827;28;20744;-67
2023/01/10 09:21:00;;;;;;;0.50;0.40;;;;;;;;;;5051954;28;20211;-68
2023/01/10 09:23:27;;;;;;;7.10;0.70;;;;;;;;;;5071478;28;20672;-68
2023/01/10 09:25:54;;;;;;;2.30;0.70;;;;;;;;;;5064069;28;20289;-68
2023/01/10 09:28:23;;;;;;;0.53;0.53;;;;;;;;;;5051542;28;20587;-68
2023/01/10 09:30:50;;;;;;;1.67;0.40;;;;;;;;;;5051711;28;20894;-69
2023/01/10 09:33:17;;;;;;;3.13;0.47;;;;;;;;;;5051620;28;20677;-69
2023/01/10 09:35:46;;;;;;;0.50;0.50;;;;;;;;;;5052246;28;20200;-68
2023/01/10 09:38:14;;;;;;;4.67;0.80;;;;;;;;;;5051264;28;20252;-69
2023/01/10 09:40:50;;;;;;;3.23;0.60;;;;;;;;;;5051196;28;20274;-68
2023/01/10 09:43:22;;;;;;;2.87;0.63;;;;;;;;;;5051122;28;20214;-68
2023/01/10 09:45:52;;;;;;;2.97;0.70;;;;;;;;;;5051291;28;20371;-68
2023/01/10 09:48:24;;;;;;;1.80;0.50;;;;;;;;;;5051215;28;20242;-68
2023/01/10 09:51:01;;;;;;;1.60;0.40;;;;;;;;;;5051149;28;20303;-68
2023/01/10 09:53:31;;;;;;;7.60;0.70;;;;;;;;;;5052350;28;20212;-68
2023/01/10 09:56:00;;;;;;;4.47;0.77;;;;;;;;;;5050452;28;20231;-68
2023/01/10 09:58:28;;;;;;;1.13;0.63;;;;;;;;;;5050060;28;20269;-68
2023/01/10 10:00:57;;;;;;;2.87;0.60;;;;;;;;;;5056158;28;20207;-67
2023/01/10 10:03:26;;;;;;;2.07;0.33;;;;;;;;;;5050485;28;20208;-68
2023/01/10 10:05:54;;;;;;;2.67;0.70;;;;;;;;;;5061489;28;20735;-67
2023/01/10 10:08:22;;;;;;;0.50;0.50;;;;;;;;;;5070671;28;20612;-68
2023/01/10 10:10:52;;;;;;;7.07;0.90;;;;;;;;;;5052722;28;20658;-67
2023/01/10 10:13:22;;;;;;;2.70;0.70;;;;;;;;;;5063072;28;20207;-67
2023/01/10 10:15:52;;;;;;;3.43;0.93;;;;;;;;;;5059410;28;20204;-67
2023/01/10 10:18:25;;;;;;;4.37;1.00;;;;;;;;;;5064173;28;20218;-68
2023/01/10 10:20:58;;;;;;;1.33;0.60;;;;;;;;;;5070517;28;20298;-67
2023/01/10 10:23:43;;;;;;;1.30;0.80;;;;;;;;;;5061395;28;20299;-68
2023/01/10 10:26:13;;;;;;;7.70;0.90;;;;;;;;;;5049820;28;20468;-67
2023/01/10 10:29:01;;;;;;;4.57;0.50;;;;;;;;;;5051747;28;20281;-67
2023/01/10 10:31:34;;;;;;;3.93;0.70;;;;;;;;;;5065447;28;20215;-68
2023/01/10 10:34:04;;;;;;;2.43;0.90;;;;;;;;;;5059859;28;20216;-68
2023/01/10 10:36:36;;;;;;;4.33;0.70;;;;;;;;;;5055049;28;20203;-67
2023/01/10 10:39:04;;;;;;;2.83;0.70;;;;;;;;;;5070144;28;20635;-68
2023/01/10 10:41:33;;;;;;;3.03;0.93;;;;;;;;;;5057210;28;20273;-68
2023/01/10 10:44:03;;;;;;;1.20;0.67;;;;;;;;;;5051356;28;20631;-68
2023/01/10 10:46:31;;;;;;;7.70;0.50;;;;;;;;;;5064291;28;20238;-68
2023/01/10 10:49:00;;;;;;;2.80;1.03;;;;;;;;;;5069751;28;20211;-68
2023/01/10 10:51:29;;;;;;;0.93;0.50;;;;;;;;;;5069958;28;20199;-68
2023/01/10 10:53:58;;;;;;;4.10;1.43;;;;;;;;;;5067497;28;20923;-68
2023/01/10 10:56:26;;;;;;;2.23;0.73;;;;;;;;;;5053667;28;20277;-68
2023/01/10 10:58:54;;;;;;;3.07;0.47;;;;;;;;;;5065149;28;20234;-68
2023/01/10 11:01:22;;;;;;;2.80;0.83;;;;;;;;;;5055214;28;20215;-68
2023/01/10 11:03:50;;;;;;;3.07;0.70;;;;;;;;;;5069537;28;20207;-68
2023/01/10 11:06:18;;;;;;;3.40;0.93;;;;;;;;;;5051037;28;20228;-67
2023/01/10 11:08:46;;;;;;;2.20;0.70;;;;;;;;;;5048446;28;20767;-67
2023/01/10 11:11:18;;;;;;;4.63;0.90;;;;;;;;;;5050333;28;20211;-68
2023/01/10 11:13:47;;;;;;;5.03;1.00;;;;;;;;;;5068696;28;20272;-68
2023/01/10 11:16:29;;;;;;;1.33;0.57;;;;;;;;;;5053595;28;20257;-68
2023/01/10 11:19:10;;;;;;;5.63;1.10;;;;;;;;;;5047979;28;20207;-68
2023/01/10 11:21:39;;;;;;;2.87;0.80;;;;;;;;;;5049458;28;20203;-68
2023/01/10 11:24:06;;;;;;;4.13;1.10;;;;;;;;;;5049499;28;20208;-68
2023/01/10 11:26:38;;;;;;;0.83;0.73;;;;;;;;;;5050951;28;20250;-68
2023/01/10 11:29:07;;;;;;;3.73;1.40;;;;;;;;;;5069465;28;20246;-68
2023/01/10 11:31:35;;;;;;;4.53;0.93;;;;;;;;;;5069283;28;20207;-68
2023/01/10 11:34:04;;;;;;;2.77;1.00;;;;;;;;;;5068329;28;20723;-68
2023/01/10 11:36:52;;;;;;;7.43;0.93;;;;;;;;;;5054054;28;20657;-68
2023/01/10 11:39:19;;;;;;;3.43;0.90;;;;;;;;;;5049116;28;20216;-68
2023/01/10 11:41:48;;;;;;;2.67;1.20;;;;;;;;;;5049282;28;20216;-68
2023/01/10 11:44:21;;;;;;;3.33;0.90;;;;;;;;;;5048934;28;20674;-68
2023/01/10 11:46:49;;;;;;;3.90;1.20;;;;;;;;;;5053951;28;20284;-68
2023/01/10 11:49:22;;;;;;;2.50;0.93;;;;;;;;;;5065418;28;20202;-68
2023/01/10 11:51:50;;;;;;;3.93;0.80;;;;;;;;;;5066692;28;20210;-68
2023/01/10 11:54:20;;;;;;;3.33;0.97;;;;;;;;;;5068829;28;20562;-67
2023/01/10 11:56:54;;;;;;;0.73;0.73;;;;;;;;;;5060602;28;21304;-68
2023/01/10 11:59:21;;;;;;;0.73;0.60;;;;;;;;;;5068952;28;20215;-68
2023/01/10 12:01:54;;;;;;;4.30;1.30;;;;;;;;;;5067408;28;20260;-68
2023/01/10 12:04:22;;;;;;;3.60;0.80;;;;;;;;;;5065129;28;20268;-68
2023/01/10 12:06:50;;;;;;;1.70;1.20;;;;;;;;;;5061262;28;20300;-68
2023/01/10 12:09:38;;;;;;;4.20;1.30;;;;;;;;;;5048438;28;20305;-67
2023/01/10 12:12:11;;;;;;;8.27;1.17;;;;;;;;;;5048418;28;20681;-67
2023/01/10 12:14:38;;;;;;;4.97;0.83;;;;;;;;;;5047876;28;20269;-67
2023/01/10 12:17:05;;;;;;;6.03;1.80;;;;;;;;;;5051459;28;20211;-67
2023/01/10 12:19:32;;;;;;;1.67;0.90;;;;;;;;;;5068290;28;20213;-67
2023/01/10 12:22:01;;;;;;;1.00;0.63;;;;;;;;;;5067945;28;20207;-67
2023/01/10 12:24:31;;;;;;;7.70;1.27;;;;;;;;;;5050172;28;20250;-67
2023/01/10 12:26:58;;;;;;;4.37;1.07;;;;;;;;;;5049731;28;20956;-68
2023/01/10 12:29:27;;;;;;;1.73;0.83;;;;;;;;;;5048501;28;20211;-67
2023/01/10 12:31:56;;;;;;;1.10;0.70;;;;;;;;;;5048500;28;20211;-68
2023/01/10 12:34:25;;;;;;;6.43;1.40;;;;;;;;;;5048038;28;20215;-67
2023/01/10 12:36:56;;;;;;;2.23;0.90;;;;;;;;;;5057373;28;20285;-67
2023/01/10 12:39:25;;;;;;;5.37;1.00;;;;;;;;;;5054723;28;20260;-67
2023/01/10 12:44:42;;;;;;;1.20;0.90;;;;;;;;;;5053823;28;20294;-67
2023/01/10 12:47:18;;;;;;;0.90;0.90;;;;;;;;;;5051862;28;20689;-68
2023/01/10 12:49:47;;;;;;;3.60;0.83;;;;;;;;;;5068064;28;20254;-67
2023/01/10 12:52:18;;;;;;;4.50;1.20;;;;;;;;;;5063122;28;20207;-67
2023/01/10 12:54:46;;;;;;;0.90;0.90;;;;;;;;;;5063807;28;20790;-69
2023/01/10 12:57:17;;;;;;;2.93;1.23;;;;;;;;;;5059777;28;20269;-66
2023/01/10 12:59:46;;;;;;;2.53;0.80;;;;;;;;;;5052721;28;20554;-65
2023/01/10 13:02:16;;;;;;;4.83;1.00;;;;;;;;;;5057225;28;20213;-68
2023/01/10 13:04:45;;;;;;;5.97;1.37;;;;;;;;;;5065132;28;20616;-69
2023/01/10 13:07:13;;;;;;;5.80;0.80;;;;;;;;;;5060192;28;20249;-69
2023/01/10 13:09:42;;;;;;;1.27;0.80;;;;;;;;;;5053667;28;20247;-71
2023/01/10 13:12:13;;;;;;;4.70;1.03;;;;;;;;;;5047519;28;20222;-71
2023/01/10 13:14:44;;;;;;;2.20;0.97;;;;;;;;;;5047297;28;20215;-71
2023/01/10 13:17:22;;;;;;;3.37;0.87;;;;;;;;;;5049761;28;20238;-62
2023/01/10 13:20:04;;;;;;;4.00;0.60;;;;;;;;;;5051050;28;20624;-68
2023/01/10 13:22:35;;;;;;;2.17;0.87;;;;;;;;;;5045951;28;20210;-67
2023/01/10 13:25:03;;;;;;;0.63;0.63;;;;;;;;;;5055543;28;20567;-64
2023/01/10 13:27:31;;;;;;;5.87;0.90;;;;;;;;;;5053395;28;20739;-66
2023/01/10 13:29:59;;;;;;;0.70;0.60;;;;;;;;;;5065351;28;20215;-66
2023/01/10 13:32:28;;;;;;;3.63;0.90;;;;;;;;;;5066374;28;20277;-63
2023/01/10 13:34:55;;;;;;;0.90;0.73;;;;;;;;;;5069634;28;20215;-66
2023/01/10 13:37:24;;;;;;;2.27;0.80;;;;;;;;;;5050975;28;20213;-68
2023/01/10 13:39:52;;;;;;;6.23;0.70;;;;;;;;;;5069782;28;20215;-69
2023/01/10 13:45:20;;;;;;;0.97;0.70;;;;;;;;;;5063003;28;20210;-67
2023/01/10 13:48:02;;;;;;;2.43;1.07;;;;;;;;;;5061971;28;20231;-67
2023/01/10 13:50:59;;;;;;;6.80;1.13;;;;;;;;;;5057376;28;20207;-67
2023/01/10 13:53:43;;;;;;;10.93;1.40;;;;;;;;;;4987370;28;20673;-67
2023/01/10 13:56:25;;;;;;;3.07;0.90;;;;;;;;;;5048107;28;20623;-67
2023/01/10 14:04:24;;;;;;;3.40;0.73;;;;;;;;;;5070293;28;20234;-67
2023/01/10 14:06:53;;;;;;;3.30;0.90;;;;;;;;;;5069910;28;20287;-67
2023/01/10 14:09:36;;;;;;;4.13;0.70;;;;;;;;;;5068322;28;20254;-67
2023/01/10 14:12:03;;;;;;;3.47;0.77;;;;;;;;;;5066483;28;20211;-67
2023/01/10 14:14:33;;;;;;;9.80;1.23;;;;;;;;;;5069648;28;20214;-67
2023/01/10 14:17:11;;;;;;;2.00;0.63;;;;;;;;;;5063537;28;20203;-67
2023/01/10 14:19:40;;;;;;;4.03;0.80;;;;;;;;;;5055705;28;20211;-67
2023/01/10 14:22:07;;;;;;;6.63;1.20;;;;;;;;;;5060706;28;20215;-67
2023/01/10 14:24:38;;;;;;;3.57;0.57;;;;;;;;;;5059658;28;20277;-67
2023/01/10 14:27:07;;;;;;;1.83;0.70;;;;;;;;;;5050023;28;20230;-68
2023/01/10 14:29:34;;;;;;;3.47;1.17;;;;;;;;;;5053868;28;20254;-69
2023/01/10 14:32:02;;;;;;;0.50;0.50;;;;;;;;;;5057044;28;20620;-67
2023/01/10 14:34:30;;;;;;;5.07;1.33;;;;;;;;;;5069276;28;20673;-66
2023/01/10 14:37:01;;;;;;;9.13;1.00;;;;;;;;;;5061650;28;20213;-66
2023/01/10 14:39:29;;;;;;;4.10;0.80;;;;;;;;;;5066651;28;20272;-66
2023/01/10 14:41:59;;;;;;;1.30;0.80;;;;;;;;;;5068780;28;20215;-66
2023/01/10 14:44:30;;;;;;;1.60;0.50;;;;;;;;;;5050427;28;20303;-67
2023/01/10 14:47:01;;;;;;;3.53;0.93;;;;;;;;;;5063215;28;20235;-69
2023/01/10 14:49:29;;;;;;;3.20;0.93;;;;;;;;;;5065770;28;20231;-68
2023/01/10 14:52:12;;;;;;;3.80;0.90;;;;;;;;;;5054911;28;20199;-66
2023/01/10 14:54:40;;;;;;;2.63;0.77;;;;;;;;;;5053297;28;20206;-68
2023/01/10 14:57:16;;;;;;;7.27;1.20;;;;;;;;;;5056718;28;20219;-68
2023/01/10 14:59:43;;;;;;;3.33;1.47;;;;;;;;;;5054827;28;20270;-68
2023/01/10 15:02:14;;;;;;;4.13;1.30;;;;;;;;;;5068897;28;20268;-68
2023/01/10 15:04:50;;;;;;;1.90;0.80;;;;;;;;;;5048670;28;20274;-68
2023/01/10 15:07:21;;;;;;;5.57;1.47;;;;;;;;;;5049920;28;20265;-68
2023/01/10 15:09:50;;;;;;;6.83;1.77;;;;;;;;;;5069124;28;20249;-68
2023/01/10 15:12:18;;;;;;;8.50;1.30;;;;;;;;;;5066955;28;20211;-68
2023/01/10 15:14:45;;;;;;;9.23;1.70;;;;;;;;;;5067788;28;20510;-68